createdAt,value
2023-10-26T00:02:57.689Z,94488.88
2023-10-26T00:05:59.403Z,94481.47
2023-10-26T00:09:01.090Z,94495.03
2023-10-26T00:12:03.708Z,94496.91
2023-10-26T00:15:07.209Z,94494.41
2023-10-26T00:18:09.009Z,94496.66
2023-10-26T00:21:10.713Z,94493.16
2023-10-26T00:24:12.456Z,94489.72
2023-10-26T00:27:15.492Z,94490.72
2023-10-26T00:30:17.681Z,94492.34
2023-10-26T00:33:19.539Z,94492.56
2023-10-26T00:36:21.737Z,94487.44
2023-10-26T00:39:23.475Z,94491.13
2023-10-26T00:42:26.198Z,94499.34
2023-10-26T00:45:32.261Z,94500.38
2023-10-26T00:48:34.625Z,94505.72
2023-10-26T00:51:36.915Z,94506.97
2023-10-26T00:54:42.688Z,94506.34
2023-10-26T00:57:45.849Z,94498.94
2023-10-26T01:00:48.100Z,94510.03
2023-10-26T01:03:52.606Z,94502.22
2023-10-26T01:06:54.631Z,94497.06
2023-10-26T01:09:57.714Z,94500.56
2023-10-26T01:12:59.543Z,94493.16
2023-10-26T01:16:03.257Z,94496.66
2023-10-26T01:19:07.518Z,94505.69
2023-10-26T01:22:10.256Z,94500.78
2023-10-26T01:25:12.304Z,94494.63
2023-10-26T01:28:13.880Z,94497.69
2023-10-26T01:31:17.930Z,94494.59
2023-10-26T01:34:19.597Z,94487.81
2023-10-26T01:37:21.200Z,94493.78
2023-10-26T01:40:23.202Z,94496.44
2023-10-26T01:43:26.230Z,94494.59
2023-10-26T01:46:27.844Z,94478.78
2023-10-26T01:49:29.882Z,94474.66
2023-10-26T01:52:31.465Z,94477.31
2023-10-26T01:55:33.088Z,94481.00
2023-10-26T01:58:35.231Z,94476.28
2023-10-26T02:01:37.588Z,94484.72
2023-10-26T02:04:39.628Z,94471.78
2023-10-26T02:07:41.734Z,94479.97
2023-10-26T02:10:43.886Z,94470.31
2023-10-26T02:13:45.961Z,94470.75
2023-10-26T02:16:48.525Z,94472.78
2023-10-26T02:19:51.433Z,94477.69
2023-10-26T02:22:53.073Z,94473.00
2023-10-26T02:25:55.109Z,94474.84
2023-10-26T02:28:57.091Z,94475.25
2023-10-26T02:31:58.686Z,94474.22
2023-10-26T02:35:00.345Z,94466.00
2023-10-26T02:38:01.985Z,94475.47
2023-10-26T02:41:06.006Z,94464.56
2023-10-26T02:44:08.133Z,94469.28
2023-10-26T02:47:10.249Z,94467.44
2023-10-26T02:50:12.277Z,94471.13
2023-10-26T02:53:15.182Z,94468.84
2023-10-26T02:56:17.224Z,94475.25
2023-10-26T02:59:18.911Z,94480.59
2023-10-26T03:02:20.823Z,94483.66
2023-10-26T03:05:22.452Z,94477.69
2023-10-26T03:08:24.479Z,94478.66
2023-10-26T03:11:26.921Z,94478.91
2023-10-26T03:14:29.446Z,94472.28
2023-10-26T03:17:31.095Z,94475.97
2023-10-26T03:20:34.023Z,94474.75
2023-10-26T03:23:36.253Z,94470.44
2023-10-26T03:26:37.856Z,94478.63
2023-10-26T03:29:39.431Z,94475.34
2023-10-26T03:32:41.087Z,94475.56
2023-10-26T03:35:42.773Z,94472.06
2023-10-26T03:38:46.163Z,94474.09
2023-10-26T03:41:48.211Z,94478.22
2023-10-26T03:44:50.286Z,94467.72
2023-10-26T03:47:51.970Z,94468.56
2023-10-26T03:50:54.064Z,94463.59
2023-10-26T03:53:56.051Z,94457.88
2023-10-26T03:56:58.076Z,94462.75
2023-10-26T03:59:59.774Z,94462.56
2023-10-26T04:03:03.382Z,94454.94
2023-10-26T04:06:05.989Z,94462.34
2023-10-26T04:09:07.785Z,94463.53
2023-10-26T04:12:09.423Z,94460.44
2023-10-26T04:15:11.528Z,94453.88
2023-10-26T04:18:13.186Z,94452.41
2023-10-26T04:21:15.769Z,94435.78
2023-10-26T04:24:17.522Z,94447.25
2023-10-26T04:27:19.292Z,94450.31
2023-10-26T04:30:21.394Z,94450.72
2023-10-26T04:33:23.569Z,94436.53
2023-10-26T04:36:26.220Z,94442.47
2023-10-26T04:39:28.335Z,94443.91
2023-10-26T04:42:30.522Z,94438.97
2023-10-26T04:45:32.244Z,94438.34
2023-10-26T04:48:34.991Z,94452.50
2023-10-26T04:51:37.130Z,94454.31
2023-10-26T04:54:38.842Z,94447.75
2023-10-26T04:57:40.487Z,94446.94
2023-10-26T05:00:42.144Z,94438.06
2023-10-26T05:03:43.761Z,94451.44
2023-10-26T05:06:45.925Z,94455.75
2023-10-26T05:09:47.633Z,94447.31
2023-10-26T05:12:49.674Z,94450.81
2023-10-26T05:15:51.322Z,94443.00
2023-10-26T05:18:53.081Z,94448.31
2023-10-26T05:21:55.075Z,94448.13
2023-10-26T05:24:56.695Z,94439.53
2023-10-26T05:27:58.611Z,94437.47
2023-10-26T05:31:00.225Z,94433.38
2023-10-26T05:34:01.844Z,94437.88
2023-10-26T05:37:03.559Z,94430.91
2023-10-26T05:40:06.859Z,94431.69
2023-10-26T05:43:10.164Z,94434.78
2023-10-26T05:46:13.262Z,94427.78
2023-10-26T05:49:15.373Z,94428.00
2023-10-26T05:52:17.028Z,94430.03
2023-10-26T05:55:18.645Z,94437.22
2023-10-26T05:58:20.278Z,94436.78
2023-10-26T06:01:21.964Z,94443.75
2023-10-26T06:04:24.248Z,94439.44
2023-10-26T06:07:26.430Z,94444.16
2023-10-26T06:10:28.674Z,94447.44
2023-10-26T06:13:30.311Z,94453.41
2023-10-26T06:16:33.206Z,94449.72
2023-10-26T06:19:35.250Z,94452.00
2023-10-26T06:22:37.236Z,94452.41
2023-10-26T06:25:40.157Z,94446.50
2023-10-26T06:28:42.275Z,94440.97
2023-10-26T06:31:45.426Z,94446.94
2023-10-26T06:34:48.032Z,94440.59
2023-10-26T06:37:50.120Z,94446.34
2023-10-26T06:40:52.220Z,94434.25
2023-10-26T06:43:54.436Z,94427.47
2023-10-26T06:46:56.690Z,94436.13
2023-10-26T06:49:58.331Z,94426.94
2023-10-26T06:53:00.507Z,94450.31
2023-10-26T06:56:02.267Z,94428.78
2023-10-26T06:59:03.966Z,94437.00
2023-10-26T07:02:09.744Z,94422.47
2023-10-26T07:05:12.723Z,94429.84
2023-10-26T07:08:14.876Z,94424.94
2023-10-26T07:11:16.930Z,94428.88
2023-10-26T07:14:18.544Z,94427.44
2023-10-26T07:17:20.129Z,94432.00
2023-10-26T07:20:22.653Z,94428.72
2023-10-26T07:23:24.754Z,94418.25
2023-10-26T07:26:26.787Z,94428.09
2023-10-26T07:29:28.842Z,94421.34
2023-10-26T07:32:30.939Z,94433.50
2023-10-26T07:35:40.963Z,94424.69
2023-10-26T07:38:42.628Z,94417.72
2023-10-26T07:42:07.084Z,94409.91
2023-10-26T07:45:08.011Z,94401.31
2023-10-26T07:48:09.705Z,94414.25
2023-10-26T07:51:11.904Z,94423.91
2023-10-26T07:54:13.792Z,94420.41
2023-10-26T07:57:17.346Z,94416.09
2023-10-26T08:00:19.161Z,94415.91
2023-10-26T08:03:20.838Z,94422.06
2023-10-26T08:06:22.567Z,94421.22
2023-10-26T08:09:24.619Z,94415.44
2023-10-26T08:12:27.352Z,94431.47
2023-10-26T08:16:35.274Z,94425.72
2023-10-26T08:18:52.364Z,94425.91
2023-10-26T08:21:54.690Z,94426.34
2023-10-26T08:24:56.795Z,94429.00
2023-10-26T08:27:59.853Z,94434.53
2023-10-26T08:31:02.381Z,94437.41
2023-10-26T08:34:04.097Z,94430.41
2023-10-26T08:40:14.580Z,94413.06
2023-10-26T08:43:17.748Z,94420.88
2023-10-26T08:46:20.286Z,94419.44
2023-10-26T08:49:24.813Z,94411.78
2023-10-26T08:52:28.172Z,94407.25
2023-10-26T08:55:31.045Z,94408.09
2023-10-26T08:58:33.608Z,94416.25
2023-10-26T09:01:35.755Z,94429.03
2023-10-26T09:04:37.544Z,94427.16
2023-10-26T09:07:39.579Z,94434.16
2023-10-26T09:10:41.256Z,94429.44
2023-10-26T09:13:42.995Z,94429.44
2023-10-26T09:16:47.576Z,94426.13
2023-10-26T09:19:49.762Z,94429.03
2023-10-26T09:22:52.635Z,94429.22
2023-10-26T09:26:01.954Z,94448.38
2023-10-26T09:29:05.208Z,94444.06
2023-10-26T09:32:08.230Z,94448.16
2023-10-26T09:35:10.067Z,94434.56
2023-10-26T09:38:12.117Z,94427.97
2023-10-26T09:41:16.746Z,94422.16
2023-10-26T09:44:18.530Z,94424.63
2023-10-26T09:47:23.588Z,94430.97
2023-10-26T09:50:28.695Z,94429.13
2023-10-26T09:53:43.421Z,94429.53
2023-10-26T09:57:05.405Z,94437.78
2023-10-26T10:00:14.701Z,94444.16
2023-10-26T10:03:18.570Z,94452.00
2023-10-26T10:06:47.531Z,94447.66
2023-10-26T10:10:08.901Z,94434.28
2023-10-26T10:13:10.618Z,94451.16
2023-10-26T10:16:38.194Z,94445.81
2023-10-26T10:19:44.944Z,94448.09
2023-10-26T10:22:48.681Z,94456.94
2023-10-26T10:25:52.353Z,94451.16
2023-10-26T10:28:54.392Z,94451.16
2023-10-26T10:31:56.069Z,94450.78
2023-10-26T10:35:01.089Z,94447.50
2023-10-26T10:38:15.322Z,94442.97
2023-10-26T10:41:17.715Z,94430.00
2023-10-26T10:44:20.421Z,94441.72
2023-10-26T10:47:28.868Z,94415.97
2023-10-26T10:50:31.228Z,94416.81
2023-10-26T10:53:32.921Z,94406.91
2023-10-26T10:56:39.354Z,94397.66
2023-10-26T10:59:40.977Z,94388.78
2023-10-26T11:02:50.657Z,94375.19
2023-10-26T11:05:52.839Z,94353.78
2023-10-26T11:08:54.868Z,94357.06
2023-10-26T11:12:09.471Z,94355.19
2023-10-26T11:15:11.479Z,94352.69
2023-10-26T11:18:14.186Z,94342.38
2023-10-26T11:21:18.073Z,94349.31
2023-10-26T11:24:20.159Z,94342.66
2023-10-26T11:27:22.791Z,94342.41
2023-10-26T11:30:24.499Z,94338.03
2023-10-26T11:33:36.723Z,94332.41
2023-10-26T11:36:39.239Z,94325.47
2023-10-26T11:39:50.707Z,94335.09
2023-10-26T11:42:59.490Z,94325.38
2023-10-26T11:46:04.079Z,94328.56
2023-10-26T11:49:07.159Z,94335.50
2023-10-26T11:52:09.299Z,94333.16
2023-10-26T11:55:11.940Z,94327.13
2023-10-26T11:58:14.937Z,94318.78
2023-10-26T12:01:17.771Z,94325.34
2023-10-26T12:04:22.991Z,94322.03
2023-10-26T12:07:25.471Z,94326.69
2023-10-26T12:10:27.832Z,94321.25
2023-10-26T12:13:29.818Z,94315.16
2023-10-26T12:16:32.027Z,94312.50
2023-10-26T12:19:34.377Z,94313.63
2023-10-26T12:22:35.997Z,94319.50
2023-10-26T12:25:38.943Z,94309.84
2023-10-26T12:28:40.542Z,94314.06
2023-10-26T12:31:42.280Z,94312.59
2023-10-26T12:34:45.716Z,94317.03
2023-10-26T12:37:47.718Z,94317.75
2023-10-26T12:40:49.369Z,94313.13
2023-10-26T12:43:51.366Z,94307.03
2023-10-26T12:46:53.656Z,94303.66
2023-10-26T12:49:56.495Z,94292.22
2023-10-26T12:52:58.587Z,94296.34
2023-10-26T12:56:00.181Z,94293.16
2023-10-26T12:59:02.014Z,94267.69
2023-10-26T13:02:03.687Z,94279.84
2023-10-26T13:05:06.787Z,94275.06
2023-10-26T13:08:09.648Z,94282.94
2023-10-26T13:11:13.753Z,94291.09
2023-10-26T13:14:15.978Z,94298.72
2023-10-26T13:17:18.085Z,94299.28
2023-10-26T13:20:20.183Z,94302.78
2023-10-26T13:23:22.304Z,94307.72
2023-10-26T13:26:23.960Z,94302.69
2023-10-26T13:29:26.702Z,94295.81
2023-10-26T13:32:28.816Z,94308.66
2023-10-26T13:35:32.816Z,94295.81
2023-10-26T13:38:34.867Z,94291.84
2023-10-26T13:41:36.521Z,94290.66
2023-10-26T13:44:38.275Z,94298.84
2023-10-26T13:47:40.167Z,94298.94
2023-10-26T13:50:42.678Z,94300.94
2023-10-26T13:53:46.329Z,94314.97
2023-10-26T13:56:48.462Z,94305.50
2023-10-26T13:59:50.078Z,94305.25
2023-10-26T14:02:52.226Z,94313.59
2023-10-26T14:05:54.269Z,94317.31
2023-10-26T14:08:59.416Z,94304.69
2023-10-26T14:12:02.723Z,94312.50
2023-10-26T14:15:06.219Z,94296.84
2023-10-26T14:18:07.849Z,94301.88
2023-10-26T14:21:09.885Z,94307.50
2023-10-26T14:24:11.760Z,94312.03
2023-10-26T14:27:13.890Z,94294.25
2023-10-26T14:30:15.622Z,94291.81
2023-10-26T14:33:17.237Z,94293.44
2023-10-26T14:36:18.868Z,94277.66
2023-10-26T14:39:23.122Z,94277.44
2023-10-26T14:42:25.534Z,94271.13
2023-10-26T14:45:27.169Z,94273.00
2023-10-26T14:48:29.627Z,94268.22
2023-10-26T14:51:32.288Z,94269.59
2023-10-26T14:54:35.189Z,94256.97
2023-10-26T14:57:37.270Z,94255.22
2023-10-26T15:00:39.798Z,94255.13
2023-10-26T15:03:43.395Z,94239.09
2023-10-26T15:06:49.195Z,94242.97
2023-10-26T15:10:21.803Z,94244.13
2023-10-26T15:13:15.639Z,94235.38
2023-10-26T15:16:17.789Z,94244.34
2023-10-26T15:19:19.456Z,94238.00
2023-10-26T15:22:21.816Z,94237.66
2023-10-26T15:25:23.376Z,94220.84
2023-10-26T15:28:25.444Z,94227.25
2023-10-26T15:31:28.010Z,94226.66
2023-10-26T15:34:30.055Z,94216.38
2023-10-26T15:37:32.617Z,94223.25
2023-10-26T15:40:34.600Z,94218.38
2023-10-26T15:43:37.244Z,94209.13
2023-10-26T15:46:38.881Z,94212.06
2023-10-26T15:49:41.012Z,94209.81
2023-10-26T15:52:42.614Z,94188.44
2023-10-26T15:55:44.209Z,94201.41
2023-10-26T15:58:48.422Z,94195.47
2023-10-26T16:01:50.484Z,94196.13
2023-10-26T16:04:52.632Z,94192.88
2023-10-26T16:07:54.630Z,94198.09
2023-10-26T16:10:56.745Z,94202.66
2023-10-26T16:13:58.467Z,94207.09
2023-10-26T16:17:00.028Z,94200.56
2023-10-26T16:20:02.213Z,94205.78
2023-10-26T16:23:04.028Z,94200.88
2023-10-26T16:26:06.055Z,94191.06
2023-10-26T16:29:08.989Z,94203.44
2023-10-26T16:32:10.667Z,94211.94
2023-10-26T16:35:12.633Z,94217.75
2023-10-26T16:38:14.992Z,94211.22
2023-10-26T16:41:16.634Z,94212.72
2023-10-26T16:44:18.559Z,94211.44
2023-10-26T16:47:20.687Z,94215.63
2023-10-26T16:50:26.503Z,94209.91
2023-10-26T16:53:32.403Z,94205.09
2023-10-26T16:56:34.481Z,94213.94
2023-10-26T16:59:36.492Z,94211.72
2023-10-26T17:02:38.420Z,94208.09
2023-10-26T17:05:40.056Z,94206.88
2023-10-26T17:08:41.696Z,94203.81
2023-10-26T17:11:43.941Z,94204.47
2023-10-26T17:14:51.543Z,94205.38
2023-10-26T17:17:54.118Z,94213.66
2023-10-26T17:20:59.009Z,94213.53
2023-10-26T17:24:00.670Z,94208.63
2023-10-26T17:27:02.347Z,94203.69
2023-10-26T17:30:05.322Z,94199.84
2023-10-26T17:33:11.085Z,94184.88
2023-10-26T17:36:16.366Z,94189.84
2023-10-26T17:39:18.292Z,94198.28
2023-10-26T17:42:21.394Z,94199.53
2023-10-26T17:45:23.279Z,94199.16
2023-10-26T17:48:25.686Z,94198.56
2023-10-26T17:51:29.976Z,94212.19
2023-10-26T17:54:33.048Z,94223.13
2023-10-26T17:57:35.107Z,94236.31
2023-10-26T18:00:36.792Z,94246.44
2023-10-26T18:03:39.211Z,94248.06
2023-10-26T18:06:41.704Z,94250.75
2023-10-26T18:09:43.724Z,94244.38
2023-10-26T18:12:46.442Z,94222.31
2023-10-26T18:15:48.732Z,94229.94
2023-10-26T18:18:50.360Z,94227.25
2023-10-26T18:21:52.192Z,94230.28
2023-10-26T18:24:56.675Z,94235.22
2023-10-26T18:27:58.670Z,94244.91
2023-10-26T18:31:21.817Z,94242.78
2023-10-26T18:34:24.855Z,94244.69
2023-10-26T18:37:27.376Z,94246.53
2023-10-26T18:40:30.094Z,94250.81
2023-10-26T18:43:33.608Z,94250.03
2023-10-26T18:46:35.243Z,94249.44
2023-10-26T18:49:36.860Z,94251.28
2023-10-26T18:52:38.484Z,94239.34
2023-10-26T18:55:42.326Z,94249.03
2023-10-26T18:58:45.880Z,94242.03
2023-10-26T19:01:47.945Z,94249.50
2023-10-26T19:04:49.822Z,94243.97
2023-10-26T19:07:51.846Z,94250.41
2023-10-26T19:10:53.873Z,94254.56
2023-10-26T19:13:56.982Z,94245.47
2023-10-26T19:16:58.808Z,94242.38
2023-10-26T19:20:00.440Z,94238.69
2023-10-26T19:23:04.137Z,94244.66
2023-10-26T19:26:06.224Z,94248.81
2023-10-26T19:29:08.235Z,94252.63
2023-10-26T19:32:10.441Z,94253.25
2023-10-26T19:35:13.167Z,94260.38
2023-10-26T19:38:17.905Z,94265.81
2023-10-26T19:41:19.507Z,94263.03
2023-10-26T19:44:21.097Z,94275.25
2023-10-26T19:47:22.781Z,94273.50
2023-10-26T19:50:24.832Z,94277.28
2023-10-26T19:53:35.208Z,94264.78
2023-10-26T19:56:36.808Z,94259.06
2023-10-26T19:59:39.629Z,94257.25
2023-10-26T20:02:41.405Z,94249.53
2023-10-26T20:05:43.192Z,94254.25
2023-10-26T20:08:45.605Z,94252.44
2023-10-26T20:11:47.341Z,94241.78
2023-10-26T20:14:48.955Z,94242.19
2023-10-26T20:17:51.099Z,94240.16
2023-10-26T20:20:52.727Z,94236.88
2023-10-26T20:23:56.057Z,94241.25
2023-10-26T20:26:58.702Z,94238.97
2023-10-26T20:30:01.638Z,94229.75
2023-10-26T20:33:05.441Z,94223.78
2023-10-26T20:36:07.397Z,94225.25
2023-10-26T20:39:11.504Z,94227.13
2023-10-26T20:42:14.700Z,94222.19
2023-10-26T20:45:16.870Z,94212.75
2023-10-26T20:48:19.037Z,94212.53
2023-10-26T20:51:20.863Z,94218.94
2023-10-26T20:54:23.032Z,94205.59
2023-10-26T20:57:27.627Z,94210.31
2023-10-26T21:00:29.217Z,94212.38
2023-10-26T21:03:32.084Z,94202.13
2023-10-26T21:06:34.153Z,94203.75
2023-10-26T21:09:36.264Z,94194.09
2023-10-26T21:12:37.907Z,94184.66
2023-10-26T21:15:39.577Z,94167.38
2023-10-26T21:18:41.249Z,94174.38
2023-10-26T21:21:46.791Z,94168.44
2023-10-26T21:24:49.412Z,94163.72
2023-10-26T21:27:51.132Z,94154.28
2023-10-26T21:30:54.792Z,94147.91
2023-10-26T21:33:56.850Z,94144.19
2023-10-26T21:36:58.894Z,94137.22
2023-10-26T21:40:00.589Z,94125.94
2023-10-26T21:43:03.025Z,94124.28
2023-10-26T21:46:06.570Z,94117.31
2023-10-26T21:49:08.367Z,94108.50
2023-10-26T21:52:10.007Z,94099.63
2023-10-26T21:55:12.710Z,94091.00
2023-10-26T21:58:14.793Z,94087.50
2023-10-26T22:01:19.237Z,94081.38
2023-10-26T22:04:22.368Z,94094.75
2023-10-26T22:07:25.097Z,94083.44
2023-10-26T22:10:28.210Z,94075.63
2023-10-26T22:13:30.565Z,94060.84
2023-10-26T22:16:32.777Z,94061.28
2023-10-26T22:19:37.637Z,94062.31
2023-10-26T22:22:39.676Z,94063.56
2023-10-26T22:25:41.620Z,94045.31
2023-10-26T22:28:43.592Z,94041.81
2023-10-26T22:31:46.161Z,94039.97
2023-10-26T22:34:47.793Z,94046.94
2023-10-26T22:37:50.962Z,94043.44
2023-10-26T22:40:52.950Z,94052.50
2023-10-26T22:43:55.075Z,94046.53
2023-10-26T22:46:57.476Z,94041.59
2023-10-26T22:49:59.085Z,94042.44
2023-10-26T22:53:00.703Z,94041.03
2023-10-26T22:56:02.929Z,94035.06
2023-10-26T22:59:07.818Z,94028.09
2023-10-26T23:02:09.434Z,94029.72
2023-10-26T23:05:11.073Z,94028.91
2023-10-26T23:08:15.302Z,94037.13
2023-10-26T23:11:16.907Z,94026.44
2023-10-26T23:14:18.511Z,94031.78
2023-10-26T23:17:20.170Z,94022.97
2023-10-26T23:20:22.707Z,94019.47
2023-10-26T23:23:24.286Z,94021.56
2023-10-26T23:26:26.296Z,94006.56
2023-10-26T23:29:29.045Z,94006.56
2023-10-26T23:32:30.683Z,93999.97
2023-10-26T23:35:35.092Z,94005.13
2023-10-26T23:38:37.489Z,94002.63
2023-10-26T23:41:39.180Z,94007.19
2023-10-26T23:44:40.755Z,93995.69
2023-10-26T23:47:42.392Z,93994.84
2023-10-26T23:50:44.372Z,93999.38
2023-10-26T23:53:46.357Z,94002.03
2023-10-26T23:56:48.672Z,94005.75
2023-10-26T23:59:50.310Z,93995.47
